Time;durP1;ratioP1;P1;durP2;ratioP2;P2;SDS_P1;SDS_P2;PMS_P1;PMS_P2;Temp;Humidity;BMP_temperature;BMP_pressure;BME280_temperature;BME280_humidity;BME280_pressure;Samples;Min_cycle;Max_cycle;Signal;HPM_P1;HPM_P2
2023/04/26 00:02:20;;;;;;;;;;;;;;;9.98;75.99;99268.56;4469403;32;34330;-75
2023/04/26 00:04:54;;;;;;;;;;;;;;;9.74;77.00;99258.16;4469785;32;35388;-75
2023/04/26 00:07:27;;;;;;;;;;;;;;;9.53;77.83;99266.81;4469862;32;33514;-74
2023/04/26 00:09:55;;;;;;;;;;;;;;;9.34;78.76;99266.88;4469146;32;34850;-75
2023/04/26 00:12:22;;;;;;;;;;;;;;;9.38;78.66;99271.34;4469231;32;35418;-74
2023/04/26 00:14:49;;;;;;;;;;;;;;;9.52;78.72;99278.00;4469692;32;35096;-73
2023/04/26 00:17:17;;;;;;;;;;;;;;;9.37;79.69;99285.13;4470784;32;33011;-75
2023/04/26 00:19:44;;;;;;;;;;;;;;;9.45;79.68;99270.78;4478400;32;34918;-74
2023/04/26 00:22:12;;;;;;;;;;;;;;;9.38;79.35;99281.69;4469907;32;34176;-75
2023/04/26 00:24:40;;;;;;;;;;;;;;;9.54;78.94;99281.50;4469846;32;34258;-74
2023/04/26 00:27:09;;;;;;;;;;;;;;;9.51;79.02;99291.72;4470328;32;33565;-75
2023/04/26 00:29:36;;;;;;;;;;;;;;;9.51;79.22;99289.12;4470190;32;33818;-75
2023/04/26 00:32:04;;;;;;;;;;;;;;;9.44;79.51;99279.34;4469926;32;34247;-74
2023/04/26 00:34:32;;;;;;;;;;;;;;;9.41;80.10;99290.47;4469378;32;34824;-74
2023/04/26 00:36:59;;;;;;;;;;;;;;;9.54;79.20;99294.44;4469547;32;34240;-75
2023/04/26 00:39:27;;;;;;;;;;;;;;;9.71;78.70;99304.56;4455289;32;32272;-75
2023/04/26 00:41:55;;;;;;;;;;;;;;;9.94;77.42;99303.78;4469694;32;35105;-74
2023/04/26 00:44:22;;;;;;;;;;;;;;;9.91;77.28;99305.34;4467819;32;34138;-74
2023/04/26 00:46:51;;;;;;;;;;;;;;;9.53;78.43;99300.41;4460925;32;33665;-75
2023/04/26 00:49:20;;;;;;;;;;;;;;;9.29;79.71;99305.47;4463017;32;34116;-73
2023/04/26 00:51:48;;;;;;;;;;;;;;;9.51;78.78;99307.22;4457855;32;34274;-75
2023/04/26 00:54:15;;;;;;;;;;;;;;;9.43;78.72;99313.81;4458283;32;34242;-75
2023/04/26 00:56:43;;;;;;;;;;;;;;;9.40;78.63;99311.06;4475739;32;33340;-74
2023/04/26 00:59:10;;;;;;;;;;;;;;;9.46;78.41;99300.97;4477733;32;35034;-74
2023/04/26 01:01:39;;;;;;;;;;;;;;;9.76;76.94;99313.41;4468774;32;33885;-73
2023/04/26 01:04:07;;;;;;;;;;;;;;;9.50;77.97;99315.78;4477393;32;33825;-73
2023/04/26 01:06:34;;;;;;;;;;;;;;;9.56;77.46;99315.16;4464914;32;33947;-73
2023/04/26 01:09:07;;;;;;;;;;;;;;;9.31;77.92;99319.34;4467565;32;34181;-74
2023/04/26 01:11:34;;;;;;;;;;;;;;;9.23;78.12;99311.25;4474533;32;34272;-74
2023/04/26 01:14:07;;;;;;;;;;;;;;;9.08;78.81;99309.72;4469506;32;36092;-75
2023/04/26 01:16:34;;;;;;;;;;;;;;;8.98;78.93;99305.84;4447427;32;876265;-75
2023/04/26 01:19:11;;;;;;;;;;;;;;;8.91;79.40;99316.75;4455652;32;33729;-74
2023/04/26 01:21:39;;;;;;;;;;;;;;;8.84;79.86;99321.63;4473291;32;33984;-75
2023/04/26 01:24:07;;;;;;;;;;;;;;;9.03;79.02;99317.28;4473221;32;35017;-73
2023/04/26 01:26:42;;;;;;;;;;;;;;;9.11;78.22;99325.34;4468771;32;33678;-75
2023/04/26 01:29:14;;;;;;;;;;;;;;;8.99;78.23;99330.87;4469785;32;34718;-74
2023/04/26 01:31:42;;;;;;;;;;;;;;;8.84;78.83;99334.53;4478409;32;34625;-73
2023/04/26 01:34:09;;;;;;;;;;;;;;;9.07;77.95;99338.97;4481987;32;34893;-75
2023/04/26 01:36:37;;;;;;;;;;;;;;;8.88;78.40;99338.16;4472799;32;33669;-74
2023/04/26 01:39:04;;;;;;;;;;;;;;;8.81;78.63;99342.16;4469960;32;34164;-75
2023/04/26 01:41:32;;;;;;;;;;;;;;;8.88;78.20;99343.31;4473174;32;34592;-75
2023/04/26 01:44:00;;;;;;;;;;;;;;;8.77;78.68;99344.53;4478739;32;34487;-74
2023/04/26 01:46:27;;;;;;;;;;;;;;;8.85;78.36;99349.25;4464921;32;34037;-74
2023/04/26 01:48:56;;;;;;;;;;;;;;;9.07;77.60;99355.34;4457137;32;34213;-74
2023/04/26 01:51:23;;;;;;;;;;;;;;;9.16;76.62;99342.81;4476873;32;33889;-74
2023/04/26 01:53:50;;;;;;;;;;;;;;;9.04;76.59;99353.53;4461297;32;34387;-75
2023/04/26 01:56:18;;;;;;;;;;;;;;;8.74;77.60;99349.56;4473599;32;33647;-74
2023/04/26 01:58:46;;;;;;;;;;;;;;;8.81;78.05;99357.66;4479727;32;34833;-74
2023/04/26 02:01:13;;;;;;;;;;;;;;;8.91;77.01;99358.97;4474803;32;33950;-75
2023/04/26 02:03:43;;;;;;;;;;;;;;;8.58;78.15;99355.75;4466589;32;34164;-74
2023/04/26 02:06:11;;;;;;;;;;;;;;;8.81;77.86;99362.84;4471633;32;34394;-75
2023/04/26 02:08:38;;;;;;;;;;;;;;;8.81;77.47;99362.84;4480840;32;34057;-75
2023/04/26 02:11:05;;;;;;;;;;;;;;;8.68;77.79;99355.34;4476256;32;33905;-74
2023/04/26 02:13:35;;;;;;;;;;;;;;;8.77;77.27;99358.34;4473505;32;34436;-76
2023/04/26 02:16:02;;;;;;;;;;;;;;;8.68;77.53;99360.50;4464953;32;31818;-74
2023/04/26 02:18:30;;;;;;;;;;;;;;;8.91;76.56;99363.25;4481165;32;34153;-74
2023/04/26 02:20:57;;;;;;;;;;;;;;;8.74;76.58;99360.78;4460895;32;34795;-74
2023/04/26 02:23:24;;;;;;;;;;;;;;;8.90;76.44;99369.22;4468629;32;34522;-75
2023/04/26 02:25:51;;;;;;;;;;;;;;;8.76;76.41;99369.47;4480706;32;33098;-74
2023/04/26 02:28:19;;;;;;;;;;;;;;;8.63;76.84;99356.81;4471541;32;34074;-73
2023/04/26 02:30:46;;;;;;;;;;;;;;;8.60;77.34;99367.03;4479063;32;33792;-75
2023/04/26 02:33:14;;;;;;;;;;;;;;;8.86;76.23;99370.78;4476237;32;34429;-74
2023/04/26 02:35:41;;;;;;;;;;;;;;;8.79;76.65;99385.13;4472651;32;33287;-75
2023/04/26 02:38:09;;;;;;;;;;;;;;;8.94;75.88;99368.53;4481046;32;33598;-75
2023/04/26 02:40:36;;;;;;;;;;;;;;;8.96;75.68;99372.06;4472169;32;33756;-75
2023/04/26 02:43:06;;;;;;;;;;;;;;;8.46;77.67;99375.03;4478885;32;35186;-75
2023/04/26 02:45:33;;;;;;;;;;;;;;;8.43;77.99;99369.72;4485358;32;33862;-75
2023/04/26 02:48:00;;;;;;;;;;;;;;;8.37;78.47;99366.81;4468484;32;34851;-75
2023/04/26 02:50:28;;;;;;;;;;;;;;;8.41;78.41;99365.28;4446126;32;33916;-74
2023/04/26 02:52:55;;;;;;;;;;;;;;;8.38;78.53;99365.12;4466670;32;34210;-75
2023/04/26 02:55:22;;;;;;;;;;;;;;;8.34;79.12;99369.25;4481257;32;33553;-74
2023/04/26 02:57:50;;;;;;;;;;;;;;;8.13;79.82;99373.41;4484996;32;34099;-73
2023/04/26 03:00:17;;;;;;;;;;;;;;;8.20;79.59;99380.62;4473275;32;34688;-74
2023/04/26 03:02:44;;;;;;;;;;;;;;;8.05;80.01;99373.94;4481361;32;34497;-75
2023/04/26 03:05:12;;;;;;;;;;;;;;;8.08;79.64;99384.37;4470833;32;33611;-75
2023/04/26 03:07:40;;;;;;;;;;;;;;;8.11;79.38;99390.50;4467201;32;34930;-75
2023/04/26 03:10:08;;;;;;;;;;;;;;;8.07;79.29;99389.47;4472959;32;33939;-74
2023/04/26 03:12:36;;;;;;;;;;;;;;;8.04;79.95;99400.53;4482096;32;35191;-74
2023/04/26 03:15:04;;;;;;;;;;;;;;;8.03;80.22;99397.88;4470679;32;33776;-73
2023/04/26 03:17:32;;;;;;;;;;;;;;;8.05;80.47;99397.16;4460434;32;34267;-75
2023/04/26 03:19:59;;;;;;;;;;;;;;;7.98;80.90;99407.97;4454624;32;34726;-74
2023/04/26 03:22:29;;;;;;;;;;;;;;;7.99;80.81;99412.31;4431329;32;34311;-75
2023/04/26 03:24:56;;;;;;;;;;;;;;;8.05;80.88;99422.94;4458370;32;34293;-75
2023/04/26 03:27:25;;;;;;;;;;;;;;;8.31;79.49;99420.72;4451652;32;34251;-74
2023/04/26 03:29:52;;;;;;;;;;;;;;;8.29;79.37;99432.69;4454604;32;34276;-75
2023/04/26 03:32:20;;;;;;;;;;;;;;;8.29;78.93;99427.53;4455256;32;34429;-75
2023/04/26 03:34:48;;;;;;;;;;;;;;;8.35;78.72;99422.66;4455630;32;33766;-74
2023/04/26 03:37:15;;;;;;;;;;;;;;;8.37;78.36;99433.91;4461929;32;34964;-74
2023/04/26 03:39:43;;;;;;;;;;;;;;;8.37;77.97;99436.50;4454368;32;34869;-74
2023/04/26 03:42:12;;;;;;;;;;;;;;;8.46;76.97;99439.56;4454620;32;35136;-74
2023/04/26 03:44:40;;;;;;;;;;;;;;;8.40;76.59;99433.16;4450987;32;33623;-74
2023/04/26 03:47:07;;;;;;;;;;;;;;;8.43;75.83;99435.94;4448465;32;34207;-75
2023/04/26 03:49:35;;;;;;;;;;;;;;;8.49;75.39;99435.34;4454304;32;34066;-75
2023/04/26 03:52:03;;;;;;;;;;;;;;;8.53;74.94;99437.25;4459359;32;34299;-74
2023/04/26 03:54:30;;;;;;;;;;;;;;;8.77;74.12;99435.81;4453437;32;34320;-75
2023/04/26 03:56:58;;;;;;;;;;;;;;;8.88;72.92;99453.50;4453759;32;34996;-74
2023/04/26 03:59:25;;;;;;;;;;;;;;;8.62;73.35;99448.03;4452870;32;34788;-73
2023/04/26 04:01:52;;;;;;;;;;;;;;;8.94;72.51;99451.19;4464669;32;34195;-74
2023/04/26 04:04:20;;;;;;;;;;;;;;;9.00;72.37;99454.06;4455107;32;33819;-74
2023/04/26 04:06:48;;;;;;;;;;;;;;;8.90;72.92;99457.03;4454319;32;34146;-74
2023/04/26 04:09:16;;;;;;;;;;;;;;;8.77;74.14;99451.31;4454873;32;33729;-73
2023/04/26 04:11:44;;;;;;;;;;;;;;;8.80;74.90;99463.47;4454004;32;34250;-73
2023/04/26 04:14:13;;;;;;;;;;;;;;;9.04;74.13;99461.16;4443072;32;33581;-74
2023/04/26 04:16:40;;;;;;;;;;;;;;;9.05;73.59;99473.22;4475460;32;34671;-74
2023/04/26 04:19:08;;;;;;;;;;;;;;;7.71;79.55;99478.78;4476781;32;34056;-73
2023/04/26 04:21:35;;;;;;;;;;;;;;;7.54;80.72;99480.53;4481109;32;35148;-74
2023/04/26 04:24:02;;;;;;;;;;;;;;;7.20;82.43;99487.34;4482807;32;34043;-75
2023/04/26 04:26:30;;;;;;;;;;;;;;;7.79;79.63;99501.59;4472668;32;34304;-75
2023/04/26 04:29:07;;;;;;;;;;;;;;;8.55;76.84;99497.59;4479389;32;34929;-74
2023/04/26 04:31:35;;;;;;;;;;;;;;;8.29;77.28;99504.94;4468677;32;34447;-74
2023/04/26 04:34:02;;;;;;;;;;;;;;;8.17;77.51;99499.16;4472631;32;34192;-75
2023/04/26 04:36:30;;;;;;;;;;;;;;;7.84;78.71;99504.38;4472537;32;34131;-75
2023/04/26 04:38:57;;;;;;;;;;;;;;;8.02;78.42;99509.62;4476452;32;35078;-75
2023/04/26 04:41:26;;;;;;;;;;;;;;;8.11;77.95;99514.31;4478503;32;34772;-73
2023/04/26 04:43:54;;;;;;;;;;;;;;;7.88;78.49;99512.38;4467341;32;33620;-74
2023/04/26 04:46:24;;;;;;;;;;;;;;;7.78;78.99;99509.25;4472019;32;34214;-74
2023/04/26 04:48:52;;;;;;;;;;;;;;;7.68;79.52;99513.91;4479752;32;33884;-75
2023/04/26 04:51:20;;;;;;;;;;;;;;;7.97;78.20;99527.41;4466455;32;34183;-75
2023/04/26 04:53:47;;;;;;;;;;;;;;;7.77;79.08;99535.84;4481144;32;34240;-74
2023/04/26 04:56:17;;;;;;;;;;;;;;;7.58;79.17;99537.47;4457806;32;34115;-73
2023/04/26 04:58:45;;;;;;;;;;;;;;;7.51;79.79;99537.94;4480234;32;34159;-73
2023/04/26 05:01:13;;;;;;;;;;;;;;;7.74;78.69;99533.09;4466252;32;35141;-74
2023/04/26 05:03:41;;;;;;;;;;;;;;;7.62;78.36;99529.06;4475168;32;33586;-75
2023/04/26 05:06:08;;;;;;;;;;;;;;;7.78;77.53;99541.06;4476489;32;34825;-75
2023/04/26 05:08:36;;;;;;;;;;;;;;;7.44;78.37;99539.31;4473499;32;34159;-75
2023/04/26 05:11:03;;;;;;;;;;;;;;;7.61;78.21;99547.03;4469883;32;34714;-75
2023/04/26 05:13:31;;;;;;;;;;;;;;;7.48;78.10;99545.53;4468704;32;33645;-74
2023/04/26 05:15:58;;;;;;;;;;;;;;;7.85;76.87;99548.31;4468530;32;34894;-74
2023/04/26 05:18:26;;;;;;;;;;;;;;;8.12;76.13;99557.41;4468046;32;34332;-74
2023/04/26 05:20:53;;;;;;;;;;;;;;;8.02;75.88;99549.19;4469107;32;34331;-74
2023/04/26 05:23:20;;;;;;;;;;;;;;;7.60;76.70;99560.75;4467306;32;32854;-75
2023/04/26 05:25:48;;;;;;;;;;;;;;;8.11;74.81;99555.59;4459833;32;34903;-73
2023/04/26 05:28:16;;;;;;;;;;;;;;;7.94;75.21;99555.66;4468592;32;34348;-74
2023/04/26 05:30:46;;;;;;;;;;;;;;;7.75;74.09;99553.81;4468552;32;35750;-75
2023/04/26 05:33:13;;;;;;;;;;;;;;;7.78;74.64;99555.66;4468775;32;34190;-76
2023/04/26 05:35:41;;;;;;;;;;;;;;;8.03;74.18;99563.84;4468511;32;33967;-75
2023/04/26 05:38:08;;;;;;;;;;;;;;;8.13;73.04;99554.00;4467865;32;34139;-75
2023/04/26 05:40:36;;;;;;;;;;;;;;;8.25;73.70;99559.78;4468880;32;34924;-74
2023/04/26 05:43:04;;;;;;;;;;;;;;;8.43;71.49;99567.56;4467330;32;33563;-75
2023/04/26 05:45:31;;;;;;;;;;;;;;;8.42;71.83;99566.69;4467230;32;33535;-75
2023/04/26 05:47:59;;;;;;;;;;;;;;;8.75;70.81;99561.41;4467741;32;34931;-76
2023/04/26 05:50:29;;;;;;;;;;;;;;;8.83;69.60;99557.50;4467836;32;34685;-75
2023/04/26 05:52:56;;;;;;;;;;;;;;;8.91;69.58;99564.72;4465692;32;33755;-75
2023/04/26 05:55:23;;;;;;;;;;;;;;;8.95;69.89;99556.31;4468993;32;34809;-76
2023/04/26 05:57:51;;;;;;;;;;;;;;;9.41;66.82;99558.44;4464224;32;34101;-74
2023/04/26 06:00:21;;;;;;;;;;;;;;;9.18;66.54;99562.56;4468675;32;35053;-75
2023/04/26 06:02:49;;;;;;;;;;;;;;;9.11;67.41;99558.78;4468596;32;32818;-75
2023/04/26 06:05:16;;;;;;;;;;;;;;;9.24;65.48;99565.41;4467269;32;34037;-75
2023/04/26 06:07:44;;;;;;;;;;;;;;;9.18;65.37;99568.59;4468448;32;34163;-74
2023/04/26 06:10:12;;;;;;;;;;;;;;;9.14;63.40;99569.28;4468684;32;33945;-75
2023/04/26 06:12:40;;;;;;;;;;;;;;;8.98;63.51;99572.84;4467683;32;33493;-75
2023/04/26 06:15:07;;;;;;;;;;;;;;;9.15;63.13;99572.72;4470794;32;34650;-75
2023/04/26 06:17:36;;;;;;;;;;;;;;;9.11;60.69;99571.69;4477972;32;34483;-75
2023/04/26 06:20:04;;;;;;;;;;;;;;;9.07;62.25;99571.50;4466274;32;35167;-76
2023/04/26 06:22:31;;;;;;;;;;;;;;;9.18;62.13;99571.19;4445177;32;31805;-75
2023/04/26 06:24:59;;;;;;;;;;;;;;;9.22;61.95;99570.50;4478130;32;34402;-75
2023/04/26 06:27:26;;;;;;;;;;;;;;;9.74;59.69;99563.34;4464143;32;34488;-74
2023/04/26 06:29:54;;;;;;;;;;;;;;;9.58;59.70;99578.19;4471879;32;34589;-75
2023/04/26 06:32:21;;;;;;;;;;;;;;;9.31;61.22;99582.06;4470473;32;34265;-74
2023/04/26 06:34:49;;;;;;;;;;;;;;;9.50;57.22;99556.25;4478926;32;34051;-75
2023/04/26 06:37:17;;;;;;;;;;;;;;;9.63;57.90;99576.66;4461606;32;33703;-75
2023/04/26 06:39:45;;;;;;;;;;;;;;;9.67;57.63;99582.00;4469691;32;35116;-76
2023/04/26 06:42:12;;;;;;;;;;;;;;;9.70;57.73;99570.09;4471803;32;33510;-75
2023/04/26 06:44:40;;;;;;;;;;;;;;;9.67;57.37;99561.28;4472790;32;34002;-74
2023/04/26 06:47:10;;;;;;;;;;;;;;;9.70;56.32;99592.47;4475727;32;34306;-75
2023/04/26 06:49:37;;;;;;;;;;;;;;;9.52;56.18;99575.31;4472124;32;35027;-76
2023/04/26 06:52:05;;;;;;;;;;;;;;;9.61;55.33;99573.13;4471572;32;33030;-76
2023/04/26 06:54:35;;;;;;;;;;;;;;;9.42;56.32;99575.69;4474120;32;33396;-74
2023/04/26 06:57:16;;;;;;;;;;;;;;;9.74;56.39;99584.91;4462903;32;33941;-74
2023/04/26 06:59:44;;;;;;;;;;;;;;;10.20;56.57;99593.81;4470968;32;34940;-74
2023/04/26 07:02:11;;;;;;;;;;;;;;;10.43;53.60;99590.53;4468123;32;33416;-75
2023/04/26 07:04:41;;;;;;;;;;;;;;;10.53;54.25;99590.91;4470183;32;34613;-76
2023/04/26 07:07:09;;;;;;;;;;;;;;;10.36;53.19;99588.47;4454470;32;32946;-75
2023/04/26 07:09:39;;;;;;;7.55;2.58;;;;;;;10.69;52.54;99585.53;4470778;32;34384;-76
2023/04/26 07:12:07;;;;;;;;;;;;;;;10.84;52.36;99579.22;4466830;32;34114;-75
2023/04/26 07:14:37;;;;;;;;;;;;;;;11.54;51.24;99579.31;4472569;32;34318;-77
2023/04/26 07:17:09;;;;;;;;;;;;;;;12.12;47.99;99569.31;4451027;32;33846;-75
2023/04/26 07:19:37;;;;;;;;;;;;;;;11.86;46.79;99571.84;4442876;32;34608;-75
2023/04/26 07:22:04;;;;;;;;;;;;;;;11.92;46.37;99585.06;4454573;32;33304;-76
2023/04/26 07:24:32;;;;;;;;;;;;;;;12.13;46.30;99586.62;4451441;32;34684;-76
2023/04/26 07:27:00;;;;;;;;;;;;;;;12.38;46.29;99599.66;4451665;32;34975;-76
2023/04/26 07:29:27;;;;;;;;;;;;;;;12.50;45.03;99599.19;4451500;32;34523;-75
2023/04/26 07:31:55;;;;;;;;;;;;;;;12.25;45.37;99600.06;4452343;32;33347;-77
2023/04/26 07:34:23;;;;;;;;;;;;;;;12.41;44.21;99592.81;4449520;32;34189;-76
2023/04/26 07:36:50;;;;;;;;;;;;;;;12.39;44.93;99604.00;4452708;32;34432;-74
2023/04/26 07:39:17;;;;;;;;;;;;;;;12.62;45.22;99590.91;4451167;32;33831;-76
2023/04/26 07:41:45;;;;;;;;;;;;;;;13.36;42.83;99601.94;4452478;32;33843;-75
2023/04/26 07:44:12;;;;;;;;;;;;;;;13.43;41.52;99603.03;4452923;32;34738;-75
2023/04/26 07:46:39;;;;;;;;;;;;;;;13.59;41.16;99598.28;4451099;32;33949;-74
2023/04/26 07:49:07;;;;;;;;;;;;;;;13.74;41.34;99603.94;4452289;32;34507;-77
2023/04/26 07:51:34;;;;;;;;;;;;;;;13.84;40.19;99600.75;4453325;32;34129;-75
2023/04/26 07:54:01;;;;;;;;;;;;;;;14.05;38.82;99594.38;4452895;32;33531;-76
2023/04/26 07:56:29;;;;;;;;;;;;;;;14.11;38.62;99615.38;4451720;32;34315;-77
2023/04/26 07:58:56;;;;;;;;;;;;;;;13.31;39.99;99600.06;4452817;32;33638;-74
2023/04/26 08:01:24;;;;;;;;;;;;;;;12.71;40.54;99609.41;4453723;32;33441;-75
2023/04/26 08:03:51;;;;;;;;;;;;;;;11.92;40.88;99617.94;4453896;32;32384;-76
2023/04/26 08:06:20;;;;;;;;;;;;;;;12.12;41.10;99616.03;4453257;32;35366;-74
2023/04/26 08:08:49;;;;;;;;;;;;;;;12.44;39.36;99622.38;4452490;32;32724;-74
2023/04/26 08:11:17;;;;;;;;;;;;;;;12.92;39.23;99630.03;4453642;32;33399;-76
2023/04/26 08:13:45;;;;;;;;;;;;;;;13.62;37.35;99606.16;4454249;32;34729;-75
2023/04/26 08:16:12;;;;;;;;;;;;;;;13.06;36.33;99627.87;4455249;32;34231;-76
2023/04/26 08:18:40;;;;;;;;;;;;;;;13.17;37.18;99625.59;4442366;32;35118;-75
2023/04/26 08:21:12;;;;;;;;;;;;;;;13.36;38.76;99627.09;4448073;32;34456;-74
2023/04/26 08:23:39;;;;;;;;;;;;;;;13.76;38.41;99623.09;4447976;32;34164;-75
2023/04/26 08:26:07;;;;;;;;;;;;;;;13.73;38.20;99638.59;4437615;32;34987;-76
2023/04/26 08:28:34;;;;;;;;;;;;;;;13.51;38.34;99635.37;4452243;32;34313;-75
2023/04/26 08:31:02;;;;;;;;;;;;;;;12.58;38.27;99604.66;4447664;32;33927;-77
2023/04/26 08:33:29;;;;;;;;;;;;;;;11.67;39.46;99644.66;4452831;32;33801;-76
2023/04/26 08:35:57;;;;;;;;;;;;;;;12.02;38.34;99645.09;4455720;32;33161;-76
2023/04/26 08:38:25;;;;;;;;;;;;;;;12.11;38.06;99648.00;4454445;32;34512;-76
2023/04/26 08:40:52;;;;;;;;;;;;;;;12.46;35.86;99625.00;4453461;32;34054;-75
2023/04/26 08:43:19;;;;;;;;;;;;;;;12.34;36.09;99639.34;4440451;32;33742;-77
2023/04/26 08:45:46;;;;;;;;;;;;;;;12.83;37.06;99660.06;4445162;32;33610;-75
2023/04/26 08:48:16;;;;;;;;;;;;;;;12.83;36.74;99639.25;4438777;32;33806;-76
2023/04/26 08:50:45;;;;;;;;;;;;;;;13.05;35.82;99633.91;4450293;32;33692;-75
2023/04/26 08:53:13;;;;;;;;;;;;;;;12.93;35.60;99639.59;4439855;32;33747;-76
2023/04/26 08:55:41;;;;;;;;;;;;;;;13.00;37.08;99648.50;4454111;32;33943;-76
2023/04/26 08:58:09;;;;;;;;;;;;;;;12.59;38.74;99655.75;4438806;32;34353;-77
2023/04/26 09:00:37;;;;;;;;;;;;;;;12.34;38.86;99660.13;4444636;32;33947;-75
2023/04/26 09:03:04;;;;;;;;;;;;;;;12.52;39.17;99672.00;4444073;32;34164;-75
2023/04/26 09:05:32;;;;;;;;;;;;;;;11.91;39.25;99658.56;4453260;32;32612;-75
2023/04/26 09:08:00;;;;;;;;;;;;;;;12.10;38.34;99636.75;4442885;32;33895;-76
2023/04/26 09:10:28;;;;;;;;;;;;;;;12.28;37.87;99665.09;4457366;32;33555;-77
2023/04/26 09:12:55;;;;;;;;;;;;;;;12.16;38.68;99669.84;4452212;32;34126;-77
2023/04/26 09:15:23;;;;;;;;;;;;;;;12.89;36.99;99649.84;4456452;32;34303;-76
2023/04/26 09:17:51;;;;;;;;;;;;;;;13.19;34.83;99644.72;4441838;32;35462;-76
2023/04/26 09:20:20;;;;;;;;;;;;;;;13.02;34.99;99639.03;4466357;32;34045;-75
2023/04/26 09:22:48;;;;;;;;;;;;;;;13.07;35.86;99640.03;4457409;32;34727;-74
2023/04/26 09:25:16;;;;;;;;;;;;;;;13.12;36.13;99648.88;4455231;32;33860;-76
2023/04/26 09:27:43;;;;;;;;;;;;;;;13.21;37.10;99636.97;4468656;32;33995;-75
2023/04/26 09:30:12;;;;;;;;;;;;;;;13.50;35.54;99649.22;4469465;32;33608;-77
2023/04/26 09:32:43;;;;;;;;;;;;;;;13.23;36.59;99663.94;4468233;32;33879;-73
2023/04/26 09:35:26;;;;;;;;;;;;;;;12.77;37.79;99660.72;4469080;32;34130;-76
2023/04/26 09:37:55;;;;;;;;;;;;;;;12.58;39.39;99643.63;4468050;32;34956;-76
2023/04/26 09:40:27;;;;;;;;;;;;;;;12.62;39.90;99639.41;4453478;32;33494;-76
2023/04/26 09:43:03;;;;;;;;;;;;;;;12.78;38.15;99652.94;4456294;32;33434;-76
2023/04/26 09:45:31;;;;;;;;;;;;;;;12.57;37.00;99636.66;4455817;32;34626;-74
2023/04/26 09:48:15;;;;;;;;;;;;;;;13.08;38.47;99657.41;4454073;32;34350;-76
2023/04/26 09:50:47;;;;;;;;;;;;;;;13.56;37.22;99646.81;4465892;32;34130;-76
2023/04/26 09:53:24;;;;;;;;;;;;;;;12.96;35.64;99612.78;4449798;32;34969;-76
2023/04/26 09:55:52;;;;;;;;;;;;;;;13.29;36.97;99652.00;4464264;32;33931;-77
2023/04/26 09:58:19;;;;;;;;;;;;;;;13.07;36.14;99655.63;4466369;32;34424;-74
2023/04/26 10:00:48;;;;;;;;;;;;;;;13.66;36.93;99657.50;4468509;32;33397;-79
2023/04/26 10:03:17;;;;;;;;;;;;;;;13.12;35.43;99651.47;4467660;32;34227;-77
2023/04/26 10:05:45;;;;;;;;;;;;;;;12.82;37.42;99658.28;4452683;32;34895;-77
2023/04/26 10:08:12;;;;;;;;;;;;;;;13.21;38.33;99657.78;4466933;32;34224;-76
2023/04/26 10:10:40;;;;;;;;;;;;;;;13.70;36.10;99655.03;4440401;32;33914;-78
2023/04/26 10:13:07;;;;;;;;;;;;;;;14.11;34.26;99651.84;4468034;32;34887;-76
2023/04/26 10:15:34;;;;;;;;;;;;;;;13.76;35.02;99655.19;4453046;32;34143;-76
2023/04/26 10:18:03;;;;;;;;;;;;;;;13.23;36.31;99663.94;4467610;32;34455;-74
2023/04/26 10:20:30;;;;;;;;;;;;;;;13.15;37.47;99672.38;4455496;32;32411;-76
2023/04/26 10:23:00;;;;;;;;;;;;;;;13.15;37.30;99659.38;4445956;32;33951;-74
2023/04/26 10:25:40;;;;;;;;;;;;;;;13.16;37.27;99666.34;4451882;32;34156;-76
2023/04/26 10:28:08;;;;;;;;;;;;;;;13.37;36.04;99660.09;4465825;32;33576;-75
2023/04/26 10:30:54;;;;;;;;;;;;;;;13.75;36.88;99649.94;4464576;32;33577;-76
2023/04/26 10:33:22;;;;;;;;;;;;;;;14.01;35.94;99658.53;4466703;32;33950;-76
2023/04/26 10:36:02;;;;;;;;;;;;;;;13.86;36.30;99666.75;4466555;32;34171;-77
2023/04/26 10:38:30;;;;;;;;;;;;;;;13.59;36.16;99663.34;4464979;32;34257;-77
2023/04/26 10:41:17;;;;;;;;;;;;;;;13.11;36.45;99667.03;4453301;32;34260;-77
2023/04/26 10:43:44;;;;;;;;;;;;;;;12.86;36.17;99680.94;4466785;32;33825;-75
2023/04/26 10:46:31;;;;;;;;;;;;;;;13.13;35.27;99670.56;4466411;32;33704;-76
2023/04/26 10:48:58;;;;;;;;;;;;;;;13.19;35.70;99660.34;4467134;32;35301;-77
2023/04/26 10:51:26;;;;;;;;;;;;;;;13.17;35.82;99657.72;4467171;32;33905;-78
2023/04/26 10:53:53;;;;;;;;;;;;;;;13.22;36.79;99667.38;4454413;32;33834;-77
2023/04/26 10:56:27;;;;;;;;;;;;;;;13.09;35.25;99666.97;4467127;32;34937;-79
2023/04/26 10:59:08;;;;;;;;;;;;;;;12.83;36.64;99668.72;4454244;32;35024;-77
2023/04/26 11:01:55;;;;;;;;;;;;;;;13.00;36.09;99666.69;4466631;32;33480;-79
2023/04/26 11:04:22;;;;;;;;;;;;;;;13.40;35.67;99636.75;4448284;32;33870;-77
2023/04/26 11:06:50;;;;;;;;;;;;;;;13.62;34.79;99650.41;4468733;32;34161;-77
2023/04/26 11:09:35;;;;;;;;;;;;;;;13.69;34.37;99652.38;4468916;32;35047;-75
2023/04/26 11:12:03;;;;;;;;;;;;;;;13.57;34.36;99645.94;4468556;32;33542;-76
2023/04/26 11:14:31;;;;;;;;;;;;;;;13.12;34.40;99655.81;4459180;32;34959;-77
2023/04/26 11:17:02;;;;;;;;;;;;;;;13.12;35.67;99653.19;4459561;32;33874;-78
2023/04/26 11:19:30;;;;;;;;;;;;;;;12.84;35.35;99646.19;4468243;32;34212;-81
2023/04/26 11:22:00;;;;;;;;;;;;;;;13.24;36.71;99648.38;4455942;32;34268;-76
2023/04/26 11:24:32;;;;;;;;;;;;;;;13.31;34.79;99649.50;4465723;32;33824;-74
2023/04/26 11:27:00;;;;;;;;;;;;;;;13.39;36.08;99647.12;4454376;32;34054;-77
2023/04/26 11:29:27;;;;;;;;;;;;;;;13.15;35.73;99659.38;4469250;32;34543;-78
2023/04/26 11:31:55;;;;;;;;;;;;;;;13.32;35.62;99666.84;4454395;32;32275;-76
2023/04/26 11:34:35;;;;;;;;;;;;;;;13.24;36.02;99652.69;4466482;32;33254;-77
2023/04/26 11:37:03;;;;;;;;;;;;;;;13.40;35.30;99662.78;4468196;32;34064;-77
2023/04/26 11:39:31;;;;;;;;;;;;;;;13.57;34.72;99664.16;4468684;32;35156;-77
2023/04/26 11:42:06;;;;;;;;;;;;;;;13.83;34.02;99651.06;4460293;32;33572;-74
2023/04/26 11:44:34;;;;;;;;;;;;;;;13.52;34.27;99652.75;4443137;32;33376;-75
2023/04/26 11:47:02;;;;;;;;;;;;;;;13.14;34.98;99657.59;4468083;32;34110;-79
2023/04/26 11:49:30;;;;;;;;;;;;;;;13.45;35.89;99658.59;4446602;32;34256;-75
2023/04/26 11:51:58;;;;;;;;;;;;;;;13.70;34.53;99648.94;4454476;32;34158;-77
2023/04/26 11:54:32;;;;;;;;;;;;;;;13.11;35.24;99652.28;4448354;32;34023;-78
2023/04/26 11:56:59;;;;;;;;;;;;;;;13.28;34.84;99660.63;4468559;32;34603;-76
2023/04/26 11:59:28;;;;;;;;;;;;;;;13.16;35.29;99666.34;4451205;32;34673;-75
2023/04/26 12:01:59;;;;;;;;;;;;;;;13.21;34.83;99652.59;4469960;32;34088;-77
2023/04/26 12:04:28;;;;;;;;;;;;;;;12.42;35.55;99673.37;4463104;32;34437;-76
2023/04/26 12:06:56;;;;;;;;;;;;;;;12.43;35.40;99671.66;4458926;32;33780;-75
2023/04/26 12:09:28;;;;;;;;;;;;;;;12.70;34.86;99680.41;4460541;32;35175;-76
2023/04/26 12:11:57;;;;;;;;;;;;;;;12.56;35.01;99681.66;4470027;32;34163;-76
2023/04/26 12:14:35;;;;;;;;;;;;;;;12.61;33.81;99674.88;4468664;32;34170;-76
2023/04/26 12:17:03;;;;;;;;;;;;;;;12.98;33.02;99670.97;4467301;32;34099;-75
2023/04/26 12:19:37;;;;;;;;;;;;;;;12.93;33.18;99651.72;4467997;32;34339;-76
2023/04/26 12:22:05;;;;;;;;;;;;;;;13.43;34.16;99655.06;4466164;32;33320;-74
2023/04/26 12:24:35;;;;;;;;;;;;;;;13.86;32.67;99656.34;4454509;32;34206;-75
2023/04/26 12:27:04;;;;;;;;;;;;;;;13.63;33.43;99652.19;4466141;32;34157;-75
2023/04/26 12:29:32;;;;;;;;;;;;;;;13.68;30.93;99642.81;4454291;32;34385;-75
2023/04/26 12:32:00;;;;;;;;;;;;;;;13.15;33.02;99654.19;4467902;32;33487;-76
2023/04/26 12:34:27;;;;;;;;;;;;;;;13.05;35.53;99661.62;4467333;32;34776;-76
2023/04/26 12:36:55;;;;;;;;;;;;;;;12.66;34.81;99662.94;4454086;32;35042;-74
2023/04/26 12:39:22;;;;;;;;;;;;;;;12.34;34.98;99680.00;4469134;32;34228;-75
2023/04/26 12:41:49;;;;;;;;;;;;;;;12.22;35.34;99685.66;4443969;32;33593;-75
2023/04/26 12:44:16;;;;;;;;;;;;;;;12.36;36.32;99687.03;4468193;32;33289;-75
2023/04/26 12:46:47;;;;;;;;;;;;;;;12.45;35.14;99677.81;4468804;32;33988;-74
2023/04/26 12:49:15;;;;;;;;;;;;;;;12.70;34.65;99680.41;4454432;32;34015;-74
2023/04/26 12:51:42;;;;;;;;;;;;;;;12.82;35.07;99677.34;4469534;32;33656;-75
2023/04/26 12:54:09;;;;;;;;;;;;;;;12.67;35.29;99685.53;4469597;32;33883;-74
2023/04/26 12:56:42;;;;;;;;;;;;;;;12.44;35.45;99691.59;4467309;32;33633;-76
2023/04/26 12:59:09;;;;;;;;;;;;;;;12.49;34.65;99685.75;4460268;32;34578;-75
2023/04/26 13:01:38;;;;;;;;;;;;;;;12.32;35.18;99692.06;4460229;32;31666;-74